Terminal Aerodrome Forecast
Issued by NWS Lake Charles, LA

Home | Current Version | Previous Version | Text Only | Print | Product List | Glossary On
Versions: 1 2 3 4 5 6 7 8 9 10 11 12 13 14 15 16
010
FTUS44 KLCH 241120
TAFAEX
TAF
KAEX 241120Z 2412/2512 VRB03KT P6SM SCT050 SCT200
     FM241500 VRB05KT P6SM VCTS SCT030CB BKN050
     FM241800 VRB05KT P6SM VCTS SCT040CB BKN060
      TEMPO 2419/2423 3SM TSRA BKN025CB
     FM250300 VRB03KT P6SM SCT050 BKN250=

USA.gov is the U.S. government's official web portal to all federal, state and local government web resources and services.